Rock Springs, Wisconsin
Current Conditions -  °F | °C
As of 2:55 AM on Saturday 22 Nov 2014 (Local Time) from KC35 Reporting Station
Overcast Overcast  
Wind Chill: -5°   Ceiling: 1100
Heat Index:   Visibility: 10mi
Dew Point: -3°   Wind: 10mph
Humidity: 86%   Direction: 210°SSW
Pressure: 29.97"   Gusts: 16mph
Location:  43.49°N, 89.92°W
Report Text: KC35 220855Z AUTO 21009G14KT 10SM OVC011 00/M02 A2997 RMK AO2 T10041025
Loading
Personal Weather Stations






























Interactive Weather Map New forecast layout! Learn more

10-Day Weather Forecast

Advertisements
Track Severe Weather on mobile